Terminal Aerodrome Forecast
Issued by NWS

Home | Current Version | Previous Version | Text Only | Print | Product List | Glossary Off
Versions: 1 2 3 4 5 6 7 8 9 10 11 12 13 14 15 16 17 18

000
FTUS43 KGRB 290300 AAA
TAFCWA
TAF AMD
KCWA 290340Z 2904/2924 27012G18KT P6SM VCSH BKN025 OVC050
      TEMPO 2904/2906 BKN015
     FM291000 30010KT P6SM BKN025 OVC040
     FM292000 29007KT P6SM BKN035
     FM292300 29004KT P6SM SCT035
      AMD LTD TO CLD VIS AND WIND 2903/2911=

USA.gov is the U.S. government's official web portal to all federal, state and local government web resources and services.